createdAt,value
2022-09-07T11:54:38.574Z,99.90
2022-09-07T11:57:20.367Z,99.90
2022-09-07T12:00:17.832Z,99.90
2022-09-07T12:05:55.529Z,99.90
2022-09-07T12:08:31.213Z,99.90
2022-09-07T12:13:57.431Z,99.90
2022-09-07T12:16:45.949Z,99.90
2022-09-07T12:19:22.163Z,99.90
2022-09-07T12:21:56.493Z,99.90
2022-09-07T12:24:44.999Z,99.90
2022-09-07T12:27:21.038Z,99.90
2022-09-07T12:30:14.631Z,99.90
2022-09-07T12:32:55.707Z,99.90
2022-09-07T12:35:35.822Z,99.90
2022-09-07T12:38:24.676Z,99.90
2022-09-07T12:41:03.227Z,99.90
2022-09-07T13:21:09.445Z,99.90
2022-09-07T13:23:49.448Z,96.10
2022-09-07T13:26:57.444Z,97.90
2022-09-07T13:29:38.576Z,94.40
2022-09-07T13:33:07.901Z,94.30
2022-09-07T13:35:34.945Z,94.40
2022-09-07T13:38:03.683Z,94.30
2022-09-07T13:40:38.517Z,94.80
2022-09-07T13:43:12.230Z,95.20
2022-09-07T13:46:00.064Z,93.20
2022-09-07T13:48:38.909Z,91.50
2022-09-07T13:51:25.158Z,92.50
2022-09-07T13:54:19.483Z,93.80
2022-09-07T13:56:51.982Z,92.80
2022-09-07T13:59:28.767Z,93.10
2022-09-07T14:01:55.938Z,94.70
2022-09-07T14:04:36.947Z,97.10
2022-09-07T14:07:06.846Z,95.00
2022-09-07T14:09:34.950Z,94.00
2022-09-07T14:12:02.073Z,94.30
2022-09-07T14:14:32.885Z,94.60
2022-09-07T14:16:59.770Z,94.10
2022-09-07T14:19:41.795Z,93.20
2022-09-07T14:22:23.330Z,93.20
2022-09-07T14:25:01.524Z,92.80
2022-09-07T14:27:40.218Z,91.70
2022-09-07T14:30:28.171Z,91.80
2022-09-07T14:33:13.377Z,92.30
2022-09-07T14:35:41.499Z,92.50
2022-09-07T14:38:15.080Z,92.40
2022-09-07T14:40:42.190Z,92.70
2022-09-07T14:43:27.794Z,93.30
2022-09-07T14:46:05.668Z,91.90
2022-09-07T14:48:34.502Z,90.90
2022-09-07T14:51:27.050Z,91.60
2022-09-07T14:53:56.902Z,88.90
2022-09-07T14:56:28.646Z,90.00
2022-09-07T14:58:55.431Z,89.30
2022-09-07T15:01:40.285Z,87.70
2022-09-07T15:04:19.352Z,88.90
2022-09-07T15:07:02.630Z,87.60
2022-09-07T15:09:36.813Z,87.40
2022-09-07T15:12:36.441Z,88.00
2022-09-07T15:15:31.684Z,87.30
2022-09-07T15:18:08.798Z,88.30
2022-09-07T15:20:44.323Z,87.00
2022-09-07T15:23:11.073Z,87.10
2022-09-07T15:25:40.417Z,87.60
2022-09-07T15:28:08.484Z,88.20
2022-09-07T15:30:35.481Z,88.70
2022-09-07T15:33:02.328Z,89.50
2022-09-07T15:35:29.155Z,88.50
2022-09-07T15:38:05.324Z,89.10
2022-09-07T15:41:03.730Z,89.20
2022-09-07T15:43:29.866Z,89.10
2022-09-07T15:45:56.829Z,88.10
2022-09-07T15:48:25.341Z,89.10
2022-09-07T15:51:00.237Z,89.40
2022-09-07T15:56:15.307Z,88.10
2022-09-07T15:58:43.721Z,87.30
2022-09-07T16:03:59.357Z,86.50
2022-09-07T16:06:26.843Z,87.10
2022-09-07T16:08:54.856Z,87.60
2022-09-07T16:11:24.501Z,88.20
2022-09-07T16:14:01.842Z,87.00
2022-09-07T16:19:20.666Z,88.30
2022-09-07T16:21:47.910Z,88.60
2022-09-07T16:24:14.939Z,87.50
2022-09-07T16:26:41.727Z,88.00
2022-09-07T16:29:08.561Z,89.40
2022-09-07T16:31:35.644Z,89.40
2022-09-07T16:34:03.442Z,87.40
2022-09-07T16:36:30.653Z,88.30
2022-09-07T16:39:00.265Z,87.80
2022-09-07T16:41:31.326Z,87.70
2022-09-07T16:43:58.914Z,89.30
2022-09-07T16:46:28.091Z,88.50
2022-09-07T16:48:55.423Z,88.10
2022-09-07T16:51:24.643Z,88.70
2022-09-07T16:53:54.331Z,88.70
2022-09-07T16:56:24.793Z,89.20
2022-09-07T16:58:54.965Z,89.30
2022-09-07T17:01:25.198Z,89.80
2022-09-07T17:03:52.806Z,89.20
2022-09-07T17:06:21.679Z,89.30
2022-09-07T17:08:48.759Z,88.90
2022-09-07T17:11:20.452Z,90.10
2022-09-07T17:13:48.082Z,90.10
2022-09-07T17:16:22.201Z,90.00
2022-09-07T17:21:39.577Z,90.00
2022-09-07T17:24:07.694Z,90.30
2022-09-07T17:26:34.945Z,90.90
2022-09-07T17:29:01.984Z,90.50
2022-09-07T17:34:21.266Z,90.60
2022-09-07T17:36:48.176Z,90.90
2022-09-07T17:41:46.192Z,90.60
2022-09-07T17:44:13.808Z,91.10
2022-09-07T17:46:40.712Z,91.20
2022-09-07T17:49:10.137Z,91.10
2022-09-07T17:51:37.117Z,91.70
2022-09-07T17:54:09.962Z,91.80
2022-09-07T17:56:38.766Z,91.80
2022-09-07T18:01:54.389Z,92.40
2022-09-07T18:04:22.104Z,92.80
